sensor_id;sensor_type;location;lat;lon;timestamp;temperature;humidity
30280;DHT22;17097;50.916;5.344;2023-02-15T00:01:33;5.80;99.90
30280;DHT22;17097;50.916;5.344;2023-02-15T00:03:59;5.70;99.90
30280;DHT22;17097;50.916;5.344;2023-02-15T00:06:26;5.70;99.90
30280;DHT22;17097;50.916;5.344;2023-02-15T00:08:53;5.70;99.90
30280;DHT22;17097;50.916;5.344;2023-02-15T00:11:22;5.50;99.90
30280;DHT22;17097;50.916;5.344;2023-02-15T00:14:12;5.40;99.90
30280;DHT22;17097;50.916;5.344;2023-02-15T00:16:40;5.40;99.90
30280;DHT22;17097;50.916;5.344;2023-02-15T00:19:09;5.40;99.90
30280;DHT22;17097;50.916;5.344;2023-02-15T00:21:37;5.30;99.90
30280;DHT22;17097;50.916;5.344;2023-02-15T00:24:06;5.30;99.90
30280;DHT22;17097;50.916;5.344;2023-02-15T00:26:32;5.40;99.90
30280;DHT22;17097;50.916;5.344;2023-02-15T00:29:00;5.40;99.90
30280;DHT22;17097;50.916;5.344;2023-02-15T00:31:28;5.40;99.90
30280;DHT22;17097;50.916;5.344;2023-02-15T00:34:12;5.40;99.90
30280;DHT22;17097;50.916;5.344;2023-02-15T00:36:41;5.30;99.90
30280;DHT22;17097;50.916;5.344;2023-02-15T00:39:06;5.30;99.90
30280;DHT22;17097;50.916;5.344;2023-02-15T00:41:33;5.30;99.90
30280;DHT22;17097;50.916;5.344;2023-02-15T00:43:59;5.20;99.90
30280;DHT22;17097;50.916;5.344;2023-02-15T00:46:25;5.20;99.90
30280;DHT22;17097;50.916;5.344;2023-02-15T00:48:52;5.20;99.90
30280;DHT22;17097;50.916;5.344;2023-02-15T00:51:19;5.20;99.90
30280;DHT22;17097;50.916;5.344;2023-02-15T00:53:48;5.20;99.90
30280;DHT22;17097;50.916;5.344;2023-02-15T00:56:14;5.20;99.90
30280;DHT22;17097;50.916;5.344;2023-02-15T00:58:40;5.30;99.90
30280;DHT22;17097;50.916;5.344;2023-02-15T01:01:09;5.30;99.90
30280;DHT22;17097;50.916;5.344;2023-02-15T01:03:35;5.40;99.90
30280;DHT22;17097;50.916;5.344;2023-02-15T01:06:03;5.30;99.90
30280;DHT22;17097;50.916;5.344;2023-02-15T01:08:29;5.20;99.90
30280;DHT22;17097;50.916;5.344;2023-02-15T01:10:59;5.20;99.90
30280;DHT22;17097;50.916;5.344;2023-02-15T01:13:28;5.20;99.90
30280;DHT22;17097;50.916;5.344;2023-02-15T01:15:54;5.10;99.90
30280;DHT22;17097;50.916;5.344;2023-02-15T01:18:21;5.10;99.90
30280;DHT22;17097;50.916;5.344;2023-02-15T01:20:48;5.10;99.90
30280;DHT22;17097;50.916;5.344;2023-02-15T01:23:15;5.00;99.90
30280;DHT22;17097;50.916;5.344;2023-02-15T01:25:41;4.90;99.90
30280;DHT22;17097;50.916;5.344;2023-02-15T01:28:07;4.90;99.90
30280;DHT22;17097;50.916;5.344;2023-02-15T01:30:33;4.80;99.90
30280;DHT22;17097;50.916;5.344;2023-02-15T01:32:58;4.80;99.90
30280;DHT22;17097;50.916;5.344;2023-02-15T01:35:26;4.70;99.90
30280;DHT22;17097;50.916;5.344;2023-02-15T01:37:52;4.60;99.90
30280;DHT22;17097;50.916;5.344;2023-02-15T01:40:18;4.60;99.90
30280;DHT22;17097;50.916;5.344;2023-02-15T01:42:45;4.60;99.90
30280;DHT22;17097;50.916;5.344;2023-02-15T01:47:48;4.70;99.90
30280;DHT22;17097;50.916;5.344;2023-02-15T01:53:42;4.80;99.90
30280;DHT22;17097;50.916;5.344;2023-02-15T01:56:12;4.70;99.90
30280;DHT22;17097;50.916;5.344;2023-02-15T01:58:40;4.70;99.90
30280;DHT22;17097;50.916;5.344;2023-02-15T02:01:08;4.70;99.90
30280;DHT22;17097;50.916;5.344;2023-02-15T02:06:33;4.60;99.90
30280;DHT22;17097;50.916;5.344;2023-02-15T02:09:02;4.60;99.90
30280;DHT22;17097;50.916;5.344;2023-02-15T02:11:27;4.60;99.90
30280;DHT22;17097;50.916;5.344;2023-02-15T02:13:54;4.50;99.90
30280;DHT22;17097;50.916;5.344;2023-02-15T02:41:36;4.30;99.90
30280;DHT22;17097;50.916;5.344;2023-02-15T02:44:24;4.30;99.90
30280;DHT22;17097;50.916;5.344;2023-02-15T02:46:59;4.20;99.90
30280;DHT22;17097;50.916;5.344;2023-02-15T02:49:39;4.20;99.90
30280;DHT22;17097;50.916;5.344;2023-02-15T02:52:33;4.10;99.90
30280;DHT22;17097;50.916;5.344;2023-02-15T02:54:54;4.10;99.90
30280;DHT22;17097;50.916;5.344;2023-02-15T02:57:23;4.20;99.90
30280;DHT22;17097;50.916;5.344;2023-02-15T02:59:50;4.20;99.90
30280;DHT22;17097;50.916;5.344;2023-02-15T03:02:26;4.30;99.90
30280;DHT22;17097;50.916;5.344;2023-02-15T03:05:02;4.30;99.90
30280;DHT22;17097;50.916;5.344;2023-02-15T03:07:31;4.30;99.90
30280;DHT22;17097;50.916;5.344;2023-02-15T03:10:02;4.20;99.90
30280;DHT22;17097;50.916;5.344;2023-02-15T03:12:35;4.20;99.90
30280;DHT22;17097;50.916;5.344;2023-02-15T03:15:15;4.20;99.90
30280;DHT22;17097;50.916;5.344;2023-02-15T03:17:46;4.10;99.90
30280;DHT22;17097;50.916;5.344;2023-02-15T03:20:32;4.10;99.90
30280;DHT22;17097;50.916;5.344;2023-02-15T03:23:16;4.00;99.90
30280;DHT22;17097;50.916;5.344;2023-02-15T03:25:50;4.00;99.90
30280;DHT22;17097;50.916;5.344;2023-02-15T03:28:23;3.90;99.90
30280;DHT22;17097;50.916;5.344;2023-02-15T03:30:53;3.90;99.90
30280;DHT22;17097;50.916;5.344;2023-02-15T03:33:26;4.00;99.90
30280;DHT22;17097;50.916;5.344;2023-02-15T03:36:08;4.10;99.90
30280;DHT22;17097;50.916;5.344;2023-02-15T03:38:57;4.00;99.90
30280;DHT22;17097;50.916;5.344;2023-02-15T03:41:29;4.10;99.90
30280;DHT22;17097;50.916;5.344;2023-02-15T03:44:02;4.10;99.90
30280;DHT22;17097;50.916;5.344;2023-02-15T03:46:42;4.10;99.90
30280;DHT22;17097;50.916;5.344;2023-02-15T03:49:17;4.10;99.90
30280;DHT22;17097;50.916;5.344;2023-02-15T03:51:48;4.10;99.90
30280;DHT22;17097;50.916;5.344;2023-02-15T03:54:27;4.10;99.90
30280;DHT22;17097;50.916;5.344;2023-02-15T03:57:24;4.10;99.90
30280;DHT22;17097;50.916;5.344;2023-02-15T04:00:17;4.00;99.90
30280;DHT22;17097;50.916;5.344;2023-02-15T04:03:30;3.90;99.90
30280;DHT22;17097;50.916;5.344;2023-02-15T04:06:02;3.90;99.90
30280;DHT22;17097;50.916;5.344;2023-02-15T04:08:30;3.90;99.90
30280;DHT22;17097;50.916;5.344;2023-02-15T04:11:14;3.80;99.90
30280;DHT22;17097;50.916;5.344;2023-02-15T04:13:41;3.80;99.90
30280;DHT22;17097;50.916;5.344;2023-02-15T04:16:07;3.80;99.90
30280;DHT22;17097;50.916;5.344;2023-02-15T04:18:38;3.90;99.90
30280;DHT22;17097;50.916;5.344;2023-02-15T04:21:24;3.90;99.90
30280;DHT22;17097;50.916;5.344;2023-02-15T04:24:09;3.90;99.90
30280;DHT22;17097;50.916;5.344;2023-02-15T04:26:54;3.80;99.90
30280;DHT22;17097;50.916;5.344;2023-02-15T04:29:24;3.80;99.90
30280;DHT22;17097;50.916;5.344;2023-02-15T04:31:54;3.80;99.90
30280;DHT22;17097;50.916;5.344;2023-02-15T04:34:22;3.80;99.90
30280;DHT22;17097;50.916;5.344;2023-02-15T04:36:49;3.80;99.90
30280;DHT22;17097;50.916;5.344;2023-02-15T04:39:16;3.80;99.90
30280;DHT22;17097;50.916;5.344;2023-02-15T04:41:43;3.80;99.90
30280;DHT22;17097;50.916;5.344;2023-02-15T04:44:10;3.80;99.90
30280;DHT22;17097;50.916;5.344;2023-02-15T04:46:37;3.70;99.90
30280;DHT22;17097;50.916;5.344;2023-02-15T04:49:05;3.70;99.90
30280;DHT22;17097;50.916;5.344;2023-02-15T04:51:31;3.70;99.90
30280;DHT22;17097;50.916;5.344;2023-02-15T04:53:57;3.70;99.90
30280;DHT22;17097;50.916;5.344;2023-02-15T04:56:22;3.70;99.90
30280;DHT22;17097;50.916;5.344;2023-02-15T04:58:49;3.70;99.90
30280;DHT22;17097;50.916;5.344;2023-02-15T05:01:14;3.70;99.90
30280;DHT22;17097;50.916;5.344;2023-02-15T05:03:40;3.70;99.90
30280;DHT22;17097;50.916;5.344;2023-02-15T05:06:06;3.80;99.90
30280;DHT22;17097;50.916;5.344;2023-02-15T05:08:32;3.80;99.90
30280;DHT22;17097;50.916;5.344;2023-02-15T05:10:58;3.80;99.90
30280;DHT22;17097;50.916;5.344;2023-02-15T05:13:24;3.90;99.90
30280;DHT22;17097;50.916;5.344;2023-02-15T05:15:53;3.90;99.90
30280;DHT22;17097;50.916;5.344;2023-02-15T05:18:22;3.90;99.90
30280;DHT22;17097;50.916;5.344;2023-02-15T05:20:48;3.90;99.90
30280;DHT22;17097;50.916;5.344;2023-02-15T05:23:14;3.90;99.90
30280;DHT22;17097;50.916;5.344;2023-02-15T05:25:41;3.80;99.90
30280;DHT22;17097;50.916;5.344;2023-02-15T05:28:32;3.80;99.90
30280;DHT22;17097;50.916;5.344;2023-02-15T05:33:28;3.80;99.90
30280;DHT22;17097;50.916;5.344;2023-02-15T05:35:53;3.80;99.90
30280;DHT22;17097;50.916;5.344;2023-02-15T05:38:21;3.80;99.90
30280;DHT22;17097;50.916;5.344;2023-02-15T05:40:47;3.70;99.90
30280;DHT22;17097;50.916;5.344;2023-02-15T05:43:12;3.70;99.90
30280;DHT22;17097;50.916;5.344;2023-02-15T05:45:38;3.70;99.90
30280;DHT22;17097;50.916;5.344;2023-02-15T05:48:04;3.70;99.90
30280;DHT22;17097;50.916;5.344;2023-02-15T05:50:30;3.70;99.90
30280;DHT22;17097;50.916;5.344;2023-02-15T05:52:56;3.70;99.90
30280;DHT22;17097;50.916;5.344;2023-02-15T05:55:22;3.60;99.90
30280;DHT22;17097;50.916;5.344;2023-02-15T05:57:49;3.60;99.90
30280;DHT22;17097;50.916;5.344;2023-02-15T06:00:15;3.50;99.90
30280;DHT22;17097;50.916;5.344;2023-02-15T06:02:41;3.60;99.90
30280;DHT22;17097;50.916;5.344;2023-02-15T06:05:07;3.50;99.90
30280;DHT22;17097;50.916;5.344;2023-02-15T06:07:33;3.50;99.90
30280;DHT22;17097;50.916;5.344;2023-02-15T06:09:59;3.50;99.90
30280;DHT22;17097;50.916;5.344;2023-02-15T06:12:25;3.50;99.90
30280;DHT22;17097;50.916;5.344;2023-02-15T06:14:52;3.50;99.90
30280;DHT22;17097;50.916;5.344;2023-02-15T06:17:18;3.50;99.90
30280;DHT22;17097;50.916;5.344;2023-02-15T06:19:43;3.50;99.90
30280;DHT22;17097;50.916;5.344;2023-02-15T06:22:09;3.50;99.90
30280;DHT22;17097;50.916;5.344;2023-02-15T06:24:35;3.50;99.90
30280;DHT22;17097;50.916;5.344;2023-02-15T06:27:01;3.50;99.90
30280;DHT22;17097;50.916;5.344;2023-02-15T06:29:27;3.50;99.90
30280;DHT22;17097;50.916;5.344;2023-02-15T06:31:53;3.50;99.90
30280;DHT22;17097;50.916;5.344;2023-02-15T06:34:19;3.40;99.90
30280;DHT22;17097;50.916;5.344;2023-02-15T06:36:45;3.40;99.90
30280;DHT22;17097;50.916;5.344;2023-02-15T06:39:11;3.40;99.90
30280;DHT22;17097;50.916;5.344;2023-02-15T06:41:37;3.40;99.90
30280;DHT22;17097;50.916;5.344;2023-02-15T06:44:05;3.40;99.90
30280;DHT22;17097;50.916;5.344;2023-02-15T06:46:31;3.40;99.90
30280;DHT22;17097;50.916;5.344;2023-02-15T06:48:56;3.40;99.90
30280;DHT22;17097;50.916;5.344;2023-02-15T06:51:24;3.40;99.90
30280;DHT22;17097;50.916;5.344;2023-02-15T06:53:50;3.50;99.90
30280;DHT22;17097;50.916;5.344;2023-02-15T06:56:15;3.60;99.90
30280;DHT22;17097;50.916;5.344;2023-02-15T06:58:43;3.60;99.90
30280;DHT22;17097;50.916;5.344;2023-02-15T07:01:11;3.60;99.90
30280;DHT22;17097;50.916;5.344;2023-02-15T07:03:37;3.60;99.90
30280;DHT22;17097;50.916;5.344;2023-02-15T07:06:04;3.60;99.90
30280;DHT22;17097;50.916;5.344;2023-02-15T07:08:37;3.70;99.90
30280;DHT22;17097;50.916;5.344;2023-02-15T07:11:06;3.90;99.90
30280;DHT22;17097;50.916;5.344;2023-02-15T07:13:52;4.30;99.90
30280;DHT22;17097;50.916;5.344;2023-02-15T07:16:19;4.80;99.90
30280;DHT22;17097;50.916;5.344;2023-02-15T07:18:45;5.30;99.90
30280;DHT22;17097;50.916;5.344;2023-02-15T07:21:11;5.80;99.90
30280;DHT22;17097;50.916;5.344;2023-02-15T07:23:37;6.20;99.90
30280;DHT22;17097;50.916;5.344;2023-02-15T07:26:06;6.50;99.90
30280;DHT22;17097;50.916;5.344;2023-02-15T07:28:34;6.90;99.90
30280;DHT22;17097;50.916;5.344;2023-02-15T07:31:03;7.30;99.90
30280;DHT22;17097;50.916;5.344;2023-02-15T07:33:33;7.70;99.90
30280;DHT22;17097;50.916;5.344;2023-02-15T07:36:01;8.10;99.90
30280;DHT22;17097;50.916;5.344;2023-02-15T07:38:32;8.40;99.90
30280;DHT22;17097;50.916;5.344;2023-02-15T07:41:03;8.60;99.90
30280;DHT22;17097;50.916;5.344;2023-02-15T07:43:33;9.00;99.90
30280;DHT22;17097;50.916;5.344;2023-02-15T07:46:00;9.40;99.90
30280;DHT22;17097;50.916;5.344;2023-02-15T07:48:26;9.90;99.90
30280;DHT22;17097;50.916;5.344;2023-02-15T07:50:52;10.60;99.90
30280;DHT22;17097;50.916;5.344;2023-02-15T07:53:18;11.60;99.90
30280;DHT22;17097;50.916;5.344;2023-02-15T07:55:43;12.40;99.90
30280;DHT22;17097;50.916;5.344;2023-02-15T07:58:09;13.30;99.90
30280;DHT22;17097;50.916;5.344;2023-02-15T08:00:35;14.20;99.90
30280;DHT22;17097;50.916;5.344;2023-02-15T08:03:23;14.90;99.90
30280;DHT22;17097;50.916;5.344;2023-02-15T08:05:56;15.60;99.90
30280;DHT22;17097;50.916;5.344;2023-02-15T08:08:22;15.90;97.80
30280;DHT22;17097;50.916;5.344;2023-02-15T08:11:02;16.00;97.80
30280;DHT22;17097;50.916;5.344;2023-02-15T08:13:47;16.10;96.80
30280;DHT22;17097;50.916;5.344;2023-02-15T08:16:24;16.20;96.30
30280;DHT22;17097;50.916;5.344;2023-02-15T08:18:51;16.50;95.00
30280;DHT22;17097;50.916;5.344;2023-02-15T08:21:18;16.90;94.50
30280;DHT22;17097;50.916;5.344;2023-02-15T08:23:44;16.90;92.70
30280;DHT22;17097;50.916;5.344;2023-02-15T08:26:10;16.90;92.00
30280;DHT22;17097;50.916;5.344;2023-02-15T08:28:36;16.80;92.90
30280;DHT22;17097;50.916;5.344;2023-02-15T08:31:12;16.80;93.30
30280;DHT22;17097;50.916;5.344;2023-02-15T08:33:40;16.80;93.00
30280;DHT22;17097;50.916;5.344;2023-02-15T08:36:11;16.80;92.30
30280;DHT22;17097;50.916;5.344;2023-02-15T08:38:37;17.20;92.10
30280;DHT22;17097;50.916;5.344;2023-02-15T08:41:36;17.50;91.50
30280;DHT22;17097;50.916;5.344;2023-02-15T08:44:05;17.70;90.30
30280;DHT22;17097;50.916;5.344;2023-02-15T08:46:33;17.30;90.90
30280;DHT22;17097;50.916;5.344;2023-02-15T08:49:00;17.30;91.30
30280;DHT22;17097;50.916;5.344;2023-02-15T08:51:32;17.40;91.60
30280;DHT22;17097;50.916;5.344;2023-02-15T08:54:01;17.60;91.70
30280;DHT22;17097;50.916;5.344;2023-02-15T08:56:31;17.50;91.00
30280;DHT22;17097;50.916;5.344;2023-02-15T08:58:57;17.50;91.30
30280;DHT22;17097;50.916;5.344;2023-02-15T09:01:28;17.80;90.60
30280;DHT22;17097;50.916;5.344;2023-02-15T09:03:57;18.00;90.60
30280;DHT22;17097;50.916;5.344;2023-02-15T09:06:24;17.90;90.30
30280;DHT22;17097;50.916;5.344;2023-02-15T09:08:51;18.00;91.10
30280;DHT22;17097;50.916;5.344;2023-02-15T09:11:19;18.20;90.60
30280;DHT22;17097;50.916;5.344;2023-02-15T09:14:00;18.20;90.90
30280;DHT22;17097;50.916;5.344;2023-02-15T09:16:29;18.30;91.20
30280;DHT22;17097;50.916;5.344;2023-02-15T09:18:56;18.10;90.90
30280;DHT22;17097;50.916;5.344;2023-02-15T09:21:27;18.00;91.10
30280;DHT22;17097;50.916;5.344;2023-02-15T09:23:57;18.10;91.00
30280;DHT22;17097;50.916;5.344;2023-02-15T09:26:24;18.10;89.20
30280;DHT22;17097;50.916;5.344;2023-02-15T09:28:55;17.80;83.30
30280;DHT22;17097;50.916;5.344;2023-02-15T09:31:26;17.70;84.00
30280;DHT22;17097;50.916;5.344;2023-02-15T09:33:53;18.00;83.70
30280;DHT22;17097;50.916;5.344;2023-02-15T09:36:27;18.30;81.10
30280;DHT22;17097;50.916;5.344;2023-02-15T09:39:21;18.80;79.90
30280;DHT22;17097;50.916;5.344;2023-02-15T09:55:55;20.70;69.30
30280;DHT22;17097;50.916;5.344;2023-02-15T10:12:34;22.50;61.90
30280;DHT22;17097;50.916;5.344;2023-02-15T10:28:28;23.00;58.50
30280;DHT22;17097;50.916;5.344;2023-02-15T10:31:30;23.60;57.00
30280;DHT22;17097;50.916;5.344;2023-02-15T10:36:35;23.50;56.50
30280;DHT22;17097;50.916;5.344;2023-02-15T10:39:23;23.60;56.00
30280;DHT22;17097;50.916;5.344;2023-02-15T10:44:43;23.50;55.00
30280;DHT22;17097;50.916;5.344;2023-02-15T11:01:02;24.20;53.60
30280;DHT22;17097;50.916;5.344;2023-02-15T11:06:07;23.80;53.50
30280;DHT22;17097;50.916;5.344;2023-02-15T11:08:59;24.00;53.30
30280;DHT22;17097;50.916;5.344;2023-02-15T11:11:42;23.30;54.10
30280;DHT22;17097;50.916;5.344;2023-02-15T11:17:06;24.40;55.70
30280;DHT22;17097;50.916;5.344;2023-02-15T11:19:39;23.90;54.50
30280;DHT22;17097;50.916;5.344;2023-02-15T11:22:10;23.80;54.40
30280;DHT22;17097;50.916;5.344;2023-02-15T11:24:44;23.90;54.50
30280;DHT22;17097;50.916;5.344;2023-02-15T11:32:39;23.00;52.60
30280;DHT22;17097;50.916;5.344;2023-02-15T11:38:24;22.70;55.10
30280;DHT22;17097;50.916;5.344;2023-02-15T11:41:05;22.60;54.90
30280;DHT22;17097;50.916;5.344;2023-02-15T11:46:21;21.60;57.00
30280;DHT22;17097;50.916;5.344;2023-02-15T11:48:47;20.70;57.10
30280;DHT22;17097;50.916;5.344;2023-02-15T11:51:19;21.00;57.60
30280;DHT22;17097;50.916;5.344;2023-02-15T11:53:47;20.80;59.10
30280;DHT22;17097;50.916;5.344;2023-02-15T11:56:23;21.40;58.20
30280;DHT22;17097;50.916;5.344;2023-02-15T11:59:27;21.20;57.60
30280;DHT22;17097;50.916;5.344;2023-02-15T12:01:55;20.30;59.20
30280;DHT22;17097;50.916;5.344;2023-02-15T12:04:24;20.00;60.00
30280;DHT22;17097;50.916;5.344;2023-02-15T12:07:09;19.80;62.00
30280;DHT22;17097;50.916;5.344;2023-02-15T12:10:03;20.00;61.60
30280;DHT22;17097;50.916;5.344;2023-02-15T12:12:37;19.60;62.70
30280;DHT22;17097;50.916;5.344;2023-02-15T12:15:13;19.90;62.20
30280;DHT22;17097;50.916;5.344;2023-02-15T12:17:52;19.50;64.70
30280;DHT22;17097;50.916;5.344;2023-02-15T12:22:53;19.40;64.80
30280;DHT22;17097;50.916;5.344;2023-02-15T12:25:37;18.80;65.60
30280;DHT22;17097;50.916;5.344;2023-02-15T12:30:47;19.10;66.70
30280;DHT22;17097;50.916;5.344;2023-02-15T12:33:25;19.60;66.30
30280;DHT22;17097;50.916;5.344;2023-02-15T12:36:11;19.50;65.70
30280;DHT22;17097;50.916;5.344;2023-02-15T12:38:38;19.60;66.50
30280;DHT22;17097;50.916;5.344;2023-02-15T12:43:47;20.30;63.70
30280;DHT22;17097;50.916;5.344;2023-02-15T12:46:22;20.50;62.80
30280;DHT22;17097;50.916;5.344;2023-02-15T12:49:17;20.10;63.30
30280;DHT22;17097;50.916;5.344;2023-02-15T12:51:49;20.30;64.10
30280;DHT22;17097;50.916;5.344;2023-02-15T12:54:37;20.30;65.10
30280;DHT22;17097;50.916;5.344;2023-02-15T12:57:28;20.40;63.70
30280;DHT22;17097;50.916;5.344;2023-02-15T13:00:02;20.20;63.60
30280;DHT22;17097;50.916;5.344;2023-02-15T13:05:14;19.50;67.20
30280;DHT22;17097;50.916;5.344;2023-02-15T13:07:51;19.30;69.20
30280;DHT22;17097;50.916;5.344;2023-02-15T13:10:24;19.60;68.70
30280;DHT22;17097;50.916;5.344;2023-02-15T13:12:52;19.30;69.20
30280;DHT22;17097;50.916;5.344;2023-02-15T13:15:35;19.00;70.60
30280;DHT22;17097;50.916;5.344;2023-02-15T13:18:03;18.90;72.30
30280;DHT22;17097;50.916;5.344;2023-02-15T13:20:29;19.20;71.90
30280;DHT22;17097;50.916;5.344;2023-02-15T13:23:11;19.40;69.90
30280;DHT22;17097;50.916;5.344;2023-02-15T13:25:44;18.60;72.00
30280;DHT22;17097;50.916;5.344;2023-02-15T13:28:17;18.40;75.40
30280;DHT22;17097;50.916;5.344;2023-02-15T13:30:46;18.60;74.50
30280;DHT22;17097;50.916;5.344;2023-02-15T13:33:30;18.50;75.50
30280;DHT22;17097;50.916;5.344;2023-02-15T13:41:58;17.70;78.50
30280;DHT22;17097;50.916;5.344;2023-02-15T13:44:25;17.60;80.20
30280;DHT22;17097;50.916;5.344;2023-02-15T13:49:39;18.30;79.30
30280;DHT22;17097;50.916;5.344;2023-02-15T13:52:24;18.50;79.40
30280;DHT22;17097;50.916;5.344;2023-02-15T14:00:55;18.50;78.70
30280;DHT22;17097;50.916;5.344;2023-02-15T14:09:16;17.20;81.20
30280;DHT22;17097;50.916;5.344;2023-02-15T14:18:03;17.70;81.70
30280;DHT22;17097;50.916;5.344;2023-02-15T14:21:24;17.80;81.10
30280;DHT22;17097;50.916;5.344;2023-02-15T14:31:40;17.50;83.70
30280;DHT22;17097;50.916;5.344;2023-02-15T14:34:24;17.50;84.80
30280;DHT22;17097;50.916;5.344;2023-02-15T14:36:52;17.60;84.80
30280;DHT22;17097;50.916;5.344;2023-02-15T14:39:41;17.50;85.90
30280;DHT22;17097;50.916;5.344;2023-02-15T14:42:37;17.60;85.60
30280;DHT22;17097;50.916;5.344;2023-02-15T14:45:06;17.40;84.90
30280;DHT22;17097;50.916;5.344;2023-02-15T14:47:44;17.30;85.60
30280;DHT22;17097;50.916;5.344;2023-02-15T14:58:55;17.30;88.90
30280;DHT22;17097;50.916;5.344;2023-02-15T15:01:35;17.10;90.00
30280;DHT22;17097;50.916;5.344;2023-02-15T15:04:09;16.80;91.00
30280;DHT22;17097;50.916;5.344;2023-02-15T15:06:40;16.60;91.50
30280;DHT22;17097;50.916;5.344;2023-02-15T15:09:27;16.70;92.00
30280;DHT22;17097;50.916;5.344;2023-02-15T15:11:58;16.50;92.50
30280;DHT22;17097;50.916;5.344;2023-02-15T15:14:42;16.70;92.40
30280;DHT22;17097;50.916;5.344;2023-02-15T15:20:03;16.50;93.50
30280;DHT22;17097;50.916;5.344;2023-02-15T15:22:31;16.40;93.80
30280;DHT22;17097;50.916;5.344;2023-02-15T15:27:51;16.50;94.30
30280;DHT22;17097;50.916;5.344;2023-02-15T15:47:36;15.80;97.70
30280;DHT22;17097;50.916;5.344;2023-02-15T15:50:15;15.80;98.20
30280;DHT22;17097;50.916;5.344;2023-02-15T15:52:54;15.80;98.50
30280;DHT22;17097;50.916;5.344;2023-02-15T15:55:23;15.80;98.80
30280;DHT22;17097;50.916;5.344;2023-02-15T15:57:56;15.70;98.80
30280;DHT22;17097;50.916;5.344;2023-02-15T16:02:54;15.70;99.40
30280;DHT22;17097;50.916;5.344;2023-02-15T16:05:21;15.50;99.80
30280;DHT22;17097;50.916;5.344;2023-02-15T16:07:48;15.60;99.90
30280;DHT22;17097;50.916;5.344;2023-02-15T16:10:22;15.60;99.90
30280;DHT22;17097;50.916;5.344;2023-02-15T16:12:54;15.40;99.90
30280;DHT22;17097;50.916;5.344;2023-02-15T16:15:33;15.20;99.90
30280;DHT22;17097;50.916;5.344;2023-02-15T16:18:03;15.10;99.90
30280;DHT22;17097;50.916;5.344;2023-02-15T16:20:34;15.10;99.90
30280;DHT22;17097;50.916;5.344;2023-02-15T16:26:24;14.90;99.90
30280;DHT22;17097;50.916;5.344;2023-02-15T16:28:56;14.90;99.90
30280;DHT22;17097;50.916;5.344;2023-02-15T16:31:22;14.80;99.90
30280;DHT22;17097;50.916;5.344;2023-02-15T16:33:51;14.70;99.90
30280;DHT22;17097;50.916;5.344;2023-02-15T16:36:23;14.70;99.90
30280;DHT22;17097;50.916;5.344;2023-02-15T16:41:26;14.60;99.90
30280;DHT22;17097;50.916;5.344;2023-02-15T16:43:55;14.50;99.90
30280;DHT22;17097;50.916;5.344;2023-02-15T16:46:36;14.40;99.90
30280;DHT22;17097;50.916;5.344;2023-02-15T16:49:12;14.30;99.90
30280;DHT22;17097;50.916;5.344;2023-02-15T16:51:44;14.20;99.90
30280;DHT22;17097;50.916;5.344;2023-02-15T16:54:19;14.10;99.90
30280;DHT22;17097;50.916;5.344;2023-02-15T16:56:46;14.10;99.90
30280;DHT22;17097;50.916;5.344;2023-02-15T16:59:34;13.90;99.90
30280;DHT22;17097;50.916;5.344;2023-02-15T17:02:05;13.90;99.90
30280;DHT22;17097;50.916;5.344;2023-02-15T17:04:32;13.80;99.90
30280;DHT22;17097;50.916;5.344;2023-02-15T17:07:06;13.70;99.90
30280;DHT22;17097;50.916;5.344;2023-02-15T17:09:33;13.70;99.90
30280;DHT22;17097;50.916;5.344;2023-02-15T17:11:59;13.60;99.90
30280;DHT22;17097;50.916;5.344;2023-02-15T17:14:29;13.60;99.90
30280;DHT22;17097;50.916;5.344;2023-02-15T17:17:15;13.50;99.90
30280;DHT22;17097;50.916;5.344;2023-02-15T17:19:53;13.40;99.90
30280;DHT22;17097;50.916;5.344;2023-02-15T17:22:25;13.30;99.90
30280;DHT22;17097;50.916;5.344;2023-02-15T17:25:01;13.20;99.90
30280;DHT22;17097;50.916;5.344;2023-02-15T17:27:29;13.20;99.90
30280;DHT22;17097;50.916;5.344;2023-02-15T17:30:00;13.10;99.90
30280;DHT22;17097;50.916;5.344;2023-02-15T17:32:29;13.00;99.90
30280;DHT22;17097;50.916;5.344;2023-02-15T17:35:18;13.00;99.90
30280;DHT22;17097;50.916;5.344;2023-02-15T17:37:49;12.90;99.90
30280;DHT22;17097;50.916;5.344;2023-02-15T17:40:24;12.90;99.90
30280;DHT22;17097;50.916;5.344;2023-02-15T17:42:52;12.80;99.90
30280;DHT22;17097;50.916;5.344;2023-02-15T17:45:19;12.70;99.90
30280;DHT22;17097;50.916;5.344;2023-02-15T17:47:47;12.70;99.90
30280;DHT22;17097;50.916;5.344;2023-02-15T17:50:25;12.60;99.90
30280;DHT22;17097;50.916;5.344;2023-02-15T17:52:52;12.50;99.90
30280;DHT22;17097;50.916;5.344;2023-02-15T17:55:20;12.50;99.90
30280;DHT22;17097;50.916;5.344;2023-02-15T18:00:41;12.40;99.90
30280;DHT22;17097;50.916;5.344;2023-02-15T18:03:48;12.40;99.90
30280;DHT22;17097;50.916;5.344;2023-02-15T18:06:34;12.40;99.90
30280;DHT22;17097;50.916;5.344;2023-02-15T18:09:22;12.40;99.90
30280;DHT22;17097;50.916;5.344;2023-02-15T18:12:24;12.30;99.90
30280;DHT22;17097;50.916;5.344;2023-02-15T18:14:51;12.20;99.90
30280;DHT22;17097;50.916;5.344;2023-02-15T18:17:21;12.20;99.90
30280;DHT22;17097;50.916;5.344;2023-02-15T18:19:49;12.20;99.90
30280;DHT22;17097;50.916;5.344;2023-02-15T18:22:17;12.00;99.90
30280;DHT22;17097;50.916;5.344;2023-02-15T18:24:43;12.00;99.90
30280;DHT22;17097;50.916;5.344;2023-02-15T18:27:12;12.10;99.90
30280;DHT22;17097;50.916;5.344;2023-02-15T18:29:38;12.10;99.90
30280;DHT22;17097;50.916;5.344;2023-02-15T18:32:07;12.00;99.90
30280;DHT22;17097;50.916;5.344;2023-02-15T18:34:39;11.90;99.90
30280;DHT22;17097;50.916;5.344;2023-02-15T18:37:15;11.90;99.90
30280;DHT22;17097;50.916;5.344;2023-02-15T18:39:44;11.80;99.90
30280;DHT22;17097;50.916;5.344;2023-02-15T18:42:18;11.80;99.90
30280;DHT22;17097;50.916;5.344;2023-02-15T18:44:44;11.70;99.90
30280;DHT22;17097;50.916;5.344;2023-02-15T18:47:09;11.60;99.90
30280;DHT22;17097;50.916;5.344;2023-02-15T18:49:35;11.60;99.90
30280;DHT22;17097;50.916;5.344;2023-02-15T18:52:01;11.60;99.90
30280;DHT22;17097;50.916;5.344;2023-02-15T18:54:27;11.50;99.90
30280;DHT22;17097;50.916;5.344;2023-02-15T18:56:55;11.40;99.90
30280;DHT22;17097;50.916;5.344;2023-02-15T18:59:22;11.30;99.90
30280;DHT22;17097;50.916;5.344;2023-02-15T19:01:49;11.30;99.90
30280;DHT22;17097;50.916;5.344;2023-02-15T19:04:16;11.30;99.90
30280;DHT22;17097;50.916;5.344;2023-02-15T19:06:48;11.30;99.90
30280;DHT22;17097;50.916;5.344;2023-02-15T19:09:22;11.40;99.90
30280;DHT22;17097;50.916;5.344;2023-02-15T19:11:51;11.30;99.90
30280;DHT22;17097;50.916;5.344;2023-02-15T19:14:30;11.20;99.90
30280;DHT22;17097;50.916;5.344;2023-02-15T19:16:57;11.20;99.90
30280;DHT22;17097;50.916;5.344;2023-02-15T19:19:23;11.20;99.90
30280;DHT22;17097;50.916;5.344;2023-02-15T19:21:49;11.10;99.90
30280;DHT22;17097;50.916;5.344;2023-02-15T19:24:22;11.00;99.90
30280;DHT22;17097;50.916;5.344;2023-02-15T19:26:48;11.10;99.90
30280;DHT22;17097;50.916;5.344;2023-02-15T19:29:22;11.10;99.90